createdAt,value
2023-03-19T00:01:06.519Z,100.00
2023-03-19T00:03:36.954Z,100.00
2023-03-19T00:06:05.766Z,100.00
2023-03-19T00:08:34.122Z,100.00
2023-03-19T00:11:08.503Z,99.73
2023-03-19T00:13:37.057Z,99.50
2023-03-19T00:16:06.251Z,99.12
2023-03-19T00:18:36.386Z,98.87
2023-03-19T00:21:05.080Z,98.65
2023-03-19T00:23:33.535Z,98.42
2023-03-19T00:26:01.925Z,98.12
2023-03-19T00:28:30.271Z,97.45
2023-03-19T00:30:59.237Z,97.12
2023-03-19T00:33:27.657Z,97.12
2023-03-19T00:35:58.826Z,97.28
2023-03-19T00:38:27.237Z,97.36
2023-03-19T00:40:55.613Z,97.73
2023-03-19T00:43:24.239Z,97.29
2023-03-19T00:45:52.759Z,96.87
2023-03-19T00:48:21.398Z,96.52
2023-03-19T00:50:50.141Z,96.63
2023-03-19T00:53:20.673Z,96.30
2023-03-19T00:55:49.221Z,95.72
2023-03-19T00:58:17.709Z,95.89
2023-03-19T01:00:46.221Z,95.40
2023-03-19T01:03:15.987Z,94.70
2023-03-19T01:05:44.378Z,94.42
2023-03-19T01:08:14.419Z,94.39
2023-03-19T01:10:44.909Z,93.98
2023-03-19T01:13:13.885Z,93.74
2023-03-19T01:15:44.733Z,93.42
2023-03-19T01:18:14.038Z,93.71
2023-03-19T01:20:43.253Z,93.61
2023-03-19T01:23:11.852Z,93.39
2023-03-19T01:25:41.599Z,92.82
2023-03-19T01:28:11.311Z,92.41
2023-03-19T01:30:41.765Z,92.36
2023-03-19T01:33:30.840Z,92.34
2023-03-19T01:36:03.631Z,92.04
2023-03-19T01:38:39.641Z,92.15
2023-03-19T01:41:14.366Z,91.97
2023-03-19T01:43:44.147Z,92.26
2023-03-19T01:46:32.601Z,92.07
2023-03-19T01:49:21.569Z,92.05
2023-03-19T01:51:57.009Z,92.21
2023-03-19T01:54:33.962Z,91.62
2023-03-19T01:57:18.609Z,92.21
2023-03-19T02:00:10.757Z,91.88
2023-03-19T02:02:48.651Z,92.02
2023-03-19T02:05:39.300Z,91.99
2023-03-19T02:08:16.076Z,91.88
2023-03-19T02:10:48.066Z,91.81
2023-03-19T02:13:17.123Z,91.75
2023-03-19T02:15:47.084Z,91.89
2023-03-19T02:18:16.131Z,91.98
2023-03-19T02:20:52.373Z,91.93
2023-03-19T02:23:34.324Z,91.92
2023-03-19T02:26:10.481Z,91.96
2023-03-19T02:28:42.373Z,92.53
2023-03-19T02:31:12.938Z,92.77
2023-03-19T02:33:41.781Z,93.39
2023-03-19T02:36:14.850Z,94.20
2023-03-19T02:38:45.189Z,94.27
2023-03-19T02:41:14.976Z,94.74
2023-03-19T02:43:44.358Z,94.51
2023-03-19T02:46:14.726Z,94.98
2023-03-19T02:48:43.948Z,95.34
2023-03-19T02:51:13.517Z,94.96
2023-03-19T02:53:42.036Z,95.37
2023-03-19T02:56:10.652Z,95.71
2023-03-19T02:58:40.668Z,95.94
2023-03-19T03:01:09.335Z,95.94
2023-03-19T03:03:37.779Z,95.81
2023-03-19T03:06:07.035Z,95.81
2023-03-19T03:08:36.765Z,95.79
2023-03-19T03:11:05.592Z,95.82
2023-03-19T03:13:33.970Z,95.92
2023-03-19T03:16:05.437Z,95.96
2023-03-19T03:18:33.840Z,95.81
2023-03-19T03:21:02.241Z,95.88
2023-03-19T03:23:30.624Z,95.74
2023-03-19T03:26:00.782Z,95.80
2023-03-19T03:28:29.465Z,95.43
2023-03-19T03:31:01.060Z,95.45
2023-03-19T03:33:31.042Z,95.47
2023-03-19T03:35:59.765Z,95.77
2023-03-19T03:38:28.704Z,95.92
2023-03-19T03:40:57.120Z,95.94
2023-03-19T03:43:27.677Z,95.78
2023-03-19T03:45:56.299Z,95.69
2023-03-19T03:48:25.120Z,95.70
2023-03-19T03:50:54.882Z,95.79
2023-03-19T03:53:27.862Z,95.50
2023-03-19T03:55:56.311Z,95.61
2023-03-19T03:58:26.944Z,95.51
2023-03-19T04:00:56.845Z,95.15
2023-03-19T04:03:27.206Z,95.07
2023-03-19T04:05:57.321Z,95.22
2023-03-19T04:08:25.700Z,95.28
2023-03-19T04:10:54.152Z,95.29
2023-03-19T04:13:22.649Z,95.40
2023-03-19T04:15:53.785Z,95.33
2023-03-19T04:18:23.706Z,95.40
2023-03-19T04:20:53.090Z,95.38
2023-03-19T04:23:22.799Z,95.46
2023-03-19T04:25:51.683Z,95.61
2023-03-19T04:28:20.304Z,95.58
2023-03-19T04:30:48.776Z,95.75
2023-03-19T04:33:17.539Z,96.19
2023-03-19T04:35:46.318Z,96.21
2023-03-19T04:38:14.823Z,96.45
2023-03-19T04:40:44.534Z,96.47
2023-03-19T04:43:13.136Z,96.36
2023-03-19T04:45:45.776Z,96.41
2023-03-19T04:48:14.186Z,96.60
2023-03-19T04:50:42.875Z,96.48
2023-03-19T04:53:11.472Z,96.58
2023-03-19T04:55:40.234Z,96.32
2023-03-19T04:58:16.420Z,96.07
2023-03-19T05:00:47.469Z,96.13
2023-03-19T05:03:20.540Z,95.88
2023-03-19T05:05:49.436Z,96.45
2023-03-19T05:08:18.028Z,96.27
2023-03-19T05:10:47.285Z,96.74
2023-03-19T05:13:18.073Z,96.84
2023-03-19T05:15:56.055Z,96.92
2023-03-19T05:18:24.825Z,97.50
2023-03-19T05:20:54.667Z,97.78
2023-03-19T05:23:24.481Z,97.76
2023-03-19T05:26:03.935Z,97.73
2023-03-19T05:28:52.116Z,98.00
2023-03-19T05:31:26.669Z,98.20
2023-03-19T05:33:56.261Z,98.58
2023-03-19T05:36:25.107Z,98.98
2023-03-19T05:38:59.817Z,98.92
2023-03-19T05:41:34.850Z,98.89
2023-03-19T05:44:08.110Z,98.89
2023-03-19T05:46:46.611Z,99.01
2023-03-19T05:49:15.637Z,99.04
2023-03-19T05:51:44.046Z,99.01
2023-03-19T05:54:12.851Z,99.16
2023-03-19T05:56:50.674Z,99.24
2023-03-19T05:59:35.931Z,99.33
2023-03-19T06:02:17.709Z,99.41
2023-03-19T06:04:46.816Z,99.42
2023-03-19T06:07:16.704Z,99.36
2023-03-19T06:09:45.405Z,99.69
2023-03-19T06:12:14.565Z,99.90
2023-03-19T06:15:19.696Z,99.83
2023-03-19T06:17:57.873Z,99.93
2023-03-19T06:20:26.491Z,99.96
2023-03-19T06:22:54.982Z,99.75
2023-03-19T06:25:24.071Z,100.00
2023-03-19T06:27:53.194Z,100.00
2023-03-19T06:30:29.380Z,100.00
2023-03-19T06:33:00.841Z,100.00
2023-03-19T06:35:30.159Z,100.00
2023-03-19T06:37:58.621Z,100.00
2023-03-19T06:40:27.040Z,100.00
2023-03-19T06:42:55.444Z,100.00
2023-03-19T06:45:23.993Z,100.00
2023-03-19T06:47:53.858Z,100.00
2023-03-19T06:50:22.389Z,100.00
2023-03-19T06:52:50.791Z,100.00
2023-03-19T06:55:20.502Z,100.00
2023-03-19T06:57:51.238Z,100.00
2023-03-19T07:00:20.765Z,100.00
2023-03-19T07:02:49.457Z,100.00
2023-03-19T07:05:19.328Z,100.00
2023-03-19T07:07:47.743Z,100.00
2023-03-19T07:10:16.120Z,100.00
2023-03-19T07:12:44.422Z,100.00
2023-03-19T07:15:13.865Z,100.00
2023-03-19T07:17:42.345Z,99.99
2023-03-19T07:20:12.926Z,99.99
2023-03-19T07:22:42.684Z,99.69
2023-03-19T07:25:11.755Z,99.75
2023-03-19T07:27:40.182Z,99.58
2023-03-19T07:30:10.965Z,99.45
2023-03-19T07:32:39.450Z,99.49
2023-03-19T07:35:10.450Z,99.31
2023-03-19T07:37:38.970Z,99.50
2023-03-19T07:40:10.987Z,99.36
2023-03-19T07:42:39.377Z,99.56
2023-03-19T07:45:09.564Z,99.23
2023-03-19T07:47:37.981Z,99.47
2023-03-19T07:50:07.898Z,99.56
2023-03-19T07:52:36.364Z,99.45
2023-03-19T07:55:05.382Z,99.39
2023-03-19T07:57:35.146Z,99.22
2023-03-19T08:00:03.674Z,99.51
2023-03-19T08:02:42.804Z,99.64
2023-03-19T08:05:12.348Z,99.53
2023-03-19T08:07:41.168Z,99.57
2023-03-19T08:10:11.508Z,99.54
2023-03-19T08:12:42.183Z,99.45
2023-03-19T08:15:12.837Z,99.58
2023-03-19T08:17:43.031Z,99.74
2023-03-19T08:20:16.344Z,99.72
2023-03-19T08:22:44.977Z,99.82
2023-03-19T08:25:14.173Z,100.00
2023-03-19T08:27:51.296Z,100.00
2023-03-19T08:30:22.446Z,100.00
2023-03-19T08:32:51.221Z,100.00
2023-03-19T08:35:19.731Z,100.00
2023-03-19T08:37:48.217Z,100.00
2023-03-19T08:40:16.544Z,99.77
2023-03-19T08:42:46.402Z,99.49
2023-03-19T08:45:16.301Z,99.51
2023-03-19T08:47:45.381Z,99.35
2023-03-19T08:50:13.990Z,99.33
2023-03-19T08:52:42.766Z,98.89
2023-03-19T08:55:11.798Z,99.20
2023-03-19T08:57:40.230Z,99.02
2023-03-19T09:00:12.501Z,98.88
2023-03-19T09:02:40.860Z,98.78
2023-03-19T09:05:10.146Z,98.25
2023-03-19T09:07:38.520Z,98.17
2023-03-19T09:10:08.418Z,98.06
2023-03-19T09:12:36.918Z,97.59
2023-03-19T09:15:06.693Z,97.32
2023-03-19T09:17:36.999Z,97.06
2023-03-19T09:20:07.447Z,96.45
2023-03-19T09:22:35.781Z,96.23
2023-03-19T09:25:04.552Z,96.04
2023-03-19T09:27:33.065Z,96.32
2023-03-19T09:30:01.464Z,96.07
2023-03-19T09:32:30.093Z,96.10
2023-03-19T09:34:59.750Z,96.25
2023-03-19T09:37:28.182Z,96.18
2023-03-19T09:39:57.470Z,95.87
2023-03-19T09:42:46.078Z,95.84
2023-03-19T09:45:18.115Z,95.70
2023-03-19T09:47:48.667Z,95.55
2023-03-19T09:50:22.431Z,95.63
2023-03-19T09:52:59.475Z,95.63
2023-03-19T09:55:41.771Z,95.48
2023-03-19T09:58:17.171Z,95.16
2023-03-19T10:00:50.623Z,95.00
2023-03-19T10:03:44.952Z,94.73
2023-03-19T10:06:29.360Z,94.50
2023-03-19T10:09:19.700Z,94.52
2023-03-19T10:12:08.583Z,94.23
2023-03-19T10:15:05.738Z,94.21
2023-03-19T10:17:38.177Z,94.40
2023-03-19T10:20:14.363Z,94.33
2023-03-19T10:22:50.294Z,94.39
2023-03-19T10:25:24.840Z,94.32
2023-03-19T10:28:01.477Z,94.34
2023-03-19T10:30:34.243Z,94.53
2023-03-19T10:33:18.378Z,94.50
2023-03-19T10:35:49.572Z,94.41
2023-03-19T10:38:24.461Z,94.35
2023-03-19T10:41:07.174Z,94.27
2023-03-19T10:43:35.928Z,94.17
2023-03-19T10:46:04.824Z,93.96
2023-03-19T10:48:34.760Z,94.35
2023-03-19T10:51:06.668Z,94.45
2023-03-19T10:53:38.823Z,94.27
2023-03-19T10:56:16.786Z,94.04
2023-03-19T10:58:59.222Z,93.55
2023-03-19T11:01:35.147Z,93.39
2023-03-19T11:04:13.284Z,93.50
2023-03-19T11:06:42.000Z,93.16
2023-03-19T11:09:20.811Z,93.15
2023-03-19T11:11:51.167Z,93.54
2023-03-19T11:14:23.290Z,93.56
2023-03-19T11:16:57.658Z,93.52
2023-03-19T11:19:29.605Z,94.05
2023-03-19T11:22:10.006Z,93.73
2023-03-19T11:24:42.595Z,93.61
2023-03-19T11:27:12.509Z,93.67
2023-03-19T11:29:44.776Z,93.25
2023-03-19T11:32:45.853Z,93.38
2023-03-19T11:35:21.679Z,93.83
2023-03-19T11:37:57.722Z,93.65
2023-03-19T11:40:43.271Z,93.69
2023-03-19T11:43:41.891Z,94.21
2023-03-19T11:46:28.028Z,93.70
2023-03-19T11:49:48.799Z,93.03
2023-03-19T11:52:26.491Z,92.66
2023-03-19T11:55:21.314Z,92.31
2023-03-19T11:58:14.252Z,92.46
2023-03-19T12:00:48.456Z,92.25
2023-03-19T12:03:56.116Z,92.27
2023-03-19T12:06:39.558Z,92.03
2023-03-19T12:09:22.832Z,92.20
2023-03-19T12:11:55.369Z,92.20
2023-03-19T12:14:44.287Z,92.06
2023-03-19T12:17:26.758Z,91.80
2023-03-19T12:20:24.227Z,92.28
2023-03-19T12:23:07.498Z,90.90
2023-03-19T12:25:54.109Z,90.75
2023-03-19T12:28:28.127Z,90.89
2023-03-19T12:31:31.059Z,91.13
2023-03-19T12:34:23.893Z,91.40
2023-03-19T12:37:08.519Z,91.46
2023-03-19T12:39:42.187Z,90.97
2023-03-19T12:42:18.808Z,90.18
2023-03-19T12:44:51.383Z,89.48
2023-03-19T12:47:26.381Z,89.75
2023-03-19T12:49:59.968Z,88.08
2023-03-19T12:52:35.292Z,87.65
2023-03-19T12:55:10.989Z,87.35
2023-03-19T12:57:45.707Z,86.44
2023-03-19T13:00:22.710Z,85.26
2023-03-19T13:03:00.923Z,84.79
2023-03-19T13:05:38.457Z,84.69
2023-03-19T13:08:16.885Z,84.62
2023-03-19T13:10:45.416Z,84.11
2023-03-19T13:13:34.024Z,83.72
2023-03-19T13:16:11.558Z,83.53
2023-03-19T13:18:52.869Z,83.41
2023-03-19T13:21:28.774Z,83.22
2023-03-19T13:24:09.795Z,83.23
2023-03-19T13:26:39.006Z,83.29
2023-03-19T13:29:18.041Z,82.82
2023-03-19T13:31:47.391Z,83.60
2023-03-19T13:34:27.610Z,84.17
2023-03-19T13:37:03.768Z,83.92
2023-03-19T13:39:35.656Z,84.17
2023-03-19T13:42:38.998Z,84.17
2023-03-19T13:45:31.845Z,84.21
2023-03-19T13:48:25.551Z,84.92
2023-03-19T13:51:03.176Z,86.23
2023-03-19T13:53:42.572Z,86.87
2023-03-19T13:56:28.654Z,86.46
2023-03-19T13:59:34.238Z,85.88
2023-03-19T14:02:04.252Z,85.81
2023-03-19T14:04:34.277Z,85.16
2023-03-19T14:07:19.517Z,84.44
2023-03-19T14:09:50.727Z,85.10
2023-03-19T14:12:33.078Z,86.34
2023-03-19T14:15:05.399Z,86.68
2023-03-19T14:17:36.192Z,86.59
2023-03-19T14:20:31.435Z,86.30
2023-03-19T14:23:23.821Z,86.12
2023-03-19T14:26:08.306Z,86.50
2023-03-19T14:28:50.255Z,86.23
2023-03-19T14:31:23.126Z,86.26
2023-03-19T14:34:00.652Z,86.55
2023-03-19T14:36:30.368Z,86.48
2023-03-19T14:39:05.129Z,86.18
2023-03-19T14:41:38.018Z,85.96
2023-03-19T14:44:46.886Z,86.09
2023-03-19T14:47:42.971Z,85.89
2023-03-19T14:50:38.666Z,85.55
2023-03-19T14:53:17.157Z,85.77
2023-03-19T14:55:52.592Z,85.46
2023-03-19T14:58:22.191Z,85.43
2023-03-19T15:00:53.511Z,85.70
2023-03-19T15:03:31.596Z,86.17
2023-03-19T15:06:02.261Z,86.61
2023-03-19T15:08:33.614Z,88.93
2023-03-19T15:11:39.965Z,90.79
2023-03-19T15:14:52.929Z,91.91
2023-03-19T15:17:26.069Z,92.04
2023-03-19T15:19:57.448Z,91.89
2023-03-19T15:22:31.437Z,91.95
2023-03-19T15:25:08.118Z,91.79
2023-03-19T15:27:38.538Z,90.83
2023-03-19T15:30:22.473Z,90.82
2023-03-19T15:33:08.047Z,91.52
2023-03-19T15:35:39.279Z,91.75
2023-03-19T15:38:11.975Z,92.16
2023-03-19T15:40:42.641Z,93.44
2023-03-19T15:43:13.365Z,93.75
2023-03-19T15:45:47.195Z,93.32
2023-03-19T15:48:21.670Z,92.83
2023-03-19T15:50:55.711Z,92.47
2023-03-19T15:53:27.056Z,92.04
2023-03-19T15:55:56.837Z,91.79
2023-03-19T15:58:30.890Z,92.96
2023-03-19T16:01:03.257Z,93.50
2023-03-19T16:03:38.610Z,93.63
2023-03-19T16:06:14.429Z,94.34
2023-03-19T16:08:49.218Z,94.94
2023-03-19T16:11:30.448Z,95.98
2023-03-19T16:14:01.934Z,96.13
2023-03-19T16:16:34.659Z,96.67
2023-03-19T16:19:03.236Z,97.05
2023-03-19T16:21:37.179Z,97.54
2023-03-19T16:24:16.501Z,97.96
2023-03-19T16:26:46.996Z,99.13
2023-03-19T16:29:24.711Z,100.00
2023-03-19T16:31:55.381Z,100.00
2023-03-19T16:34:36.584Z,100.00
2023-03-19T16:37:43.506Z,100.00
2023-03-19T16:40:41.786Z,100.00
2023-03-19T16:43:18.167Z,100.00
2023-03-19T16:45:52.884Z,100.00
2023-03-19T16:48:21.379Z,100.00
2023-03-19T16:50:50.159Z,100.00
2023-03-19T16:53:25.703Z,100.00
2023-03-19T16:55:56.029Z,100.00
2023-03-19T16:58:31.377Z,100.00
2023-03-19T17:01:01.241Z,100.00
2023-03-19T17:03:30.219Z,100.00
2023-03-19T17:05:59.027Z,100.00
2023-03-19T17:08:27.772Z,100.00
2023-03-19T17:10:56.640Z,100.00
2023-03-19T17:13:29.829Z,100.00
2023-03-19T17:16:03.407Z,100.00
2023-03-19T17:18:36.466Z,100.00
2023-03-19T17:21:09.819Z,100.00
2023-03-19T17:23:38.521Z,100.00
2023-03-19T17:26:16.188Z,100.00
2023-03-19T17:28:44.682Z,100.00
2023-03-19T17:31:24.506Z,100.00
2023-03-19T17:33:53.938Z,100.00
2023-03-19T17:36:22.296Z,100.00
2023-03-19T17:38:50.727Z,100.00
2023-03-19T17:41:20.168Z,100.00
2023-03-19T17:43:49.251Z,100.00
2023-03-19T17:46:23.012Z,100.00
2023-03-19T17:48:52.435Z,100.00
2023-03-19T17:51:21.348Z,100.00
2023-03-19T17:53:52.562Z,100.00
2023-03-19T17:56:25.125Z,100.00
2023-03-19T17:58:54.109Z,100.00
2023-03-19T18:01:26.961Z,100.00
2023-03-19T18:03:57.725Z,100.00
2023-03-19T18:06:27.596Z,100.00
2023-03-19T18:08:56.547Z,100.00
2023-03-19T18:11:25.081Z,100.00
2023-03-19T18:13:53.550Z,100.00
2023-03-19T18:16:28.243Z,100.00
2023-03-19T18:19:00.314Z,100.00
2023-03-19T18:21:29.040Z,100.00
2023-03-19T18:23:57.814Z,100.00
2023-03-19T18:26:26.457Z,100.00
2023-03-19T18:28:54.778Z,100.00
2023-03-19T18:31:26.765Z,100.00
2023-03-19T18:33:58.953Z,100.00
2023-03-19T18:36:31.377Z,100.00
2023-03-19T18:39:00.386Z,100.00
2023-03-19T18:41:30.027Z,100.00
2023-03-19T18:44:07.962Z,100.00
2023-03-19T18:46:39.858Z,100.00
2023-03-19T18:49:22.147Z,100.00
2023-03-19T18:52:02.140Z,100.00
2023-03-19T18:54:32.493Z,100.00
2023-03-19T18:57:02.040Z,100.00
2023-03-19T18:59:33.143Z,100.00
2023-03-19T19:02:13.019Z,100.00
2023-03-19T19:04:41.498Z,100.00
2023-03-19T19:07:11.530Z,100.00
2023-03-19T19:09:39.948Z,100.00
2023-03-19T19:12:09.581Z,100.00
2023-03-19T19:14:38.027Z,100.00
2023-03-19T19:17:08.143Z,99.72
2023-03-19T19:19:36.655Z,99.39
2023-03-19T19:22:05.062Z,98.93
2023-03-19T19:24:33.420Z,98.57
2023-03-19T19:27:01.801Z,98.55
2023-03-19T19:29:31.418Z,98.45
2023-03-19T19:32:00.631Z,98.10
2023-03-19T19:34:30.403Z,97.83
2023-03-19T19:37:00.409Z,97.83
2023-03-19T19:39:29.117Z,97.53
2023-03-19T19:41:57.489Z,97.08
2023-03-19T19:44:25.988Z,96.64
2023-03-19T19:46:55.218Z,96.51
2023-03-19T19:49:25.117Z,96.27
2023-03-19T19:51:54.978Z,95.69
2023-03-19T19:54:25.050Z,95.19
2023-03-19T19:56:53.611Z,94.86
2023-03-19T19:59:26.458Z,94.44
2023-03-19T20:01:54.984Z,94.43
2023-03-19T20:04:23.361Z,94.68
2023-03-19T20:06:52.052Z,94.23
2023-03-19T20:09:22.214Z,94.04
2023-03-19T20:11:50.797Z,94.33
2023-03-19T20:14:19.135Z,93.95
2023-03-19T20:16:48.687Z,93.64
2023-03-19T20:19:20.112Z,93.33
2023-03-19T20:21:48.571Z,93.10
2023-03-19T20:24:16.903Z,92.78
2023-03-19T20:26:46.690Z,92.39
2023-03-19T20:29:16.623Z,92.45
2023-03-19T20:31:47.797Z,92.13
2023-03-19T20:34:28.586Z,91.69
2023-03-19T20:37:05.003Z,91.49
2023-03-19T20:39:33.478Z,91.18
2023-03-19T20:42:03.276Z,90.67
2023-03-19T20:44:31.964Z,90.63
2023-03-19T20:47:00.632Z,90.40
2023-03-19T20:49:30.859Z,89.94
2023-03-19T20:51:59.243Z,89.75
2023-03-19T20:54:27.855Z,89.86
2023-03-19T20:56:56.315Z,89.79
2023-03-19T20:59:28.917Z,89.73
2023-03-19T21:01:57.556Z,89.72
2023-03-19T21:04:26.131Z,89.61
2023-03-19T21:06:54.612Z,89.59
2023-03-19T21:09:24.330Z,89.66
2023-03-19T21:11:53.243Z,89.32
2023-03-19T21:14:23.367Z,89.39
2023-03-19T21:16:53.234Z,89.16
2023-03-19T21:19:21.607Z,89.27
2023-03-19T21:21:50.148Z,89.25
2023-03-19T21:24:20.521Z,88.96
2023-03-19T21:26:49.388Z,89.26
2023-03-19T21:29:26.147Z,89.33
2023-03-19T21:31:57.874Z,89.41
2023-03-19T21:34:28.369Z,89.33
2023-03-19T21:36:56.734Z,89.25
2023-03-19T21:39:25.045Z,89.20
2023-03-19T21:41:53.498Z,88.76
2023-03-19T21:44:24.510Z,88.83
2023-03-19T21:46:53.176Z,88.90
2023-03-19T21:49:22.955Z,88.59
2023-03-19T21:51:51.284Z,88.38
2023-03-19T21:54:19.754Z,88.05
2023-03-19T21:56:48.290Z,88.26
2023-03-19T21:59:20.668Z,88.07
2023-03-19T22:01:49.266Z,88.03
2023-03-19T22:04:19.199Z,87.75
2023-03-19T22:06:49.638Z,87.63
2023-03-19T22:09:18.084Z,87.55
2023-03-19T22:11:46.480Z,87.31
2023-03-19T22:14:19.313Z,87.46
2023-03-19T22:16:52.368Z,86.97
2023-03-19T22:19:21.535Z,86.93
2023-03-19T22:21:51.339Z,86.82
2023-03-19T22:24:20.061Z,86.84
2023-03-19T22:26:52.125Z,87.03
2023-03-19T22:29:25.331Z,86.95
2023-03-19T22:31:55.544Z,86.70
2023-03-19T22:34:27.584Z,86.54
2023-03-19T22:36:57.510Z,86.70
2023-03-19T22:39:28.159Z,86.23
2023-03-19T22:41:56.420Z,86.21
2023-03-19T22:44:29.460Z,86.19
2023-03-19T22:46:59.616Z,86.26
2023-03-19T22:49:29.995Z,86.29
2023-03-19T22:51:59.930Z,86.73
2023-03-19T22:54:28.367Z,86.80
2023-03-19T22:56:56.818Z,87.23
2023-03-19T22:59:25.441Z,87.55
2023-03-19T23:01:54.008Z,87.60
2023-03-19T23:04:25.474Z,87.74
2023-03-19T23:06:56.365Z,88.05
2023-03-19T23:09:27.588Z,88.22
2023-03-19T23:11:57.876Z,88.29
2023-03-19T23:14:30.914Z,88.09
2023-03-19T23:17:03.329Z,88.07
2023-03-19T23:19:34.406Z,87.86
2023-03-19T23:22:05.157Z,88.02
2023-03-19T23:24:35.201Z,87.93
2023-03-19T23:27:04.263Z,88.04
2023-03-19T23:29:36.657Z,87.75
2023-03-19T23:32:05.963Z,87.70
2023-03-19T23:34:42.332Z,87.75
2023-03-19T23:37:14.293Z,87.54
2023-03-19T23:39:43.998Z,87.40
2023-03-19T23:42:25.325Z,87.08
2023-03-19T23:44:57.603Z,86.86
2023-03-19T23:47:26.293Z,86.85
2023-03-19T23:49:54.672Z,86.76
2023-03-19T23:52:22.988Z,86.46
2023-03-19T23:54:53.464Z,86.32
2023-03-19T23:57:26.529Z,86.26
2023-03-19T23:59:55.194Z,86.25
